sensor_id;sensor_type;location;lat;lon;timestamp;temperature;humidity
71668;DHT22;59504;54.806;9.640;2023-03-23T00:00:56;10.30;83.80
71668;DHT22;59504;54.806;9.640;2023-03-23T00:03:17;10.20;83.70
71668;DHT22;59504;54.806;9.640;2023-03-23T00:05:39;10.20;83.70
71668;DHT22;59504;54.806;9.640;2023-03-23T00:08:04;10.20;83.70
71668;DHT22;59504;54.806;9.640;2023-03-23T00:10:25;10.30;83.60
71668;DHT22;59504;54.806;9.640;2023-03-23T00:12:49;10.20;83.70
71668;DHT22;59504;54.806;9.640;2023-03-23T00:15:10;10.30;83.70
71668;DHT22;59504;54.806;9.640;2023-03-23T00:17:33;10.20;83.70
71668;DHT22;59504;54.806;9.640;2023-03-23T00:19:55;10.30;83.60
71668;DHT22;59504;54.806;9.640;2023-03-23T00:22:16;10.30;83.60
71668;DHT22;59504;54.806;9.640;2023-03-23T00:24:40;10.30;83.60
71668;DHT22;59504;54.806;9.640;2023-03-23T00:27:01;10.30;83.60
71668;DHT22;59504;54.806;9.640;2023-03-23T00:29:23;10.20;83.60
71668;DHT22;59504;54.806;9.640;2023-03-23T00:31:45;10.30;83.60
71668;DHT22;59504;54.806;9.640;2023-03-23T00:34:08;10.30;83.50
71668;DHT22;59504;54.806;9.640;2023-03-23T00:36:35;10.30;83.70
71668;DHT22;59504;54.806;9.640;2023-03-23T00:39:03;10.40;83.70
71668;DHT22;59504;54.806;9.640;2023-03-23T00:41:25;10.30;83.50
71668;DHT22;59504;54.806;9.640;2023-03-23T00:43:48;10.30;83.60
71668;DHT22;59504;54.806;9.640;2023-03-23T00:46:09;10.40;83.60
71668;DHT22;59504;54.806;9.640;2023-03-23T00:48:31;10.30;83.50
71668;DHT22;59504;54.806;9.640;2023-03-23T00:50:51;10.20;83.50
71668;DHT22;59504;54.806;9.640;2023-03-23T00:53:08;10.30;83.50
71668;DHT22;59504;54.806;9.640;2023-03-23T00:55:27;10.30;83.60
71668;DHT22;59504;54.806;9.640;2023-03-23T00:57:49;10.30;83.60
71668;DHT22;59504;54.806;9.640;2023-03-23T01:00:23;10.30;83.60
71668;DHT22;59504;54.806;9.640;2023-03-23T01:02:43;10.30;83.50
71668;DHT22;59504;54.806;9.640;2023-03-23T01:05:03;10.30;83.50
71668;DHT22;59504;54.806;9.640;2023-03-23T01:07:22;10.30;83.50
71668;DHT22;59504;54.806;9.640;2023-03-23T01:09:42;10.40;83.50
71668;DHT22;59504;54.806;9.640;2023-03-23T01:12:03;10.40;83.50
71668;DHT22;59504;54.806;9.640;2023-03-23T01:14:23;10.30;83.40
71668;DHT22;59504;54.806;9.640;2023-03-23T01:16:51;10.50;83.50
71668;DHT22;59504;54.806;9.640;2023-03-23T01:19:11;10.20;83.30
71668;DHT22;59504;54.806;9.640;2023-03-23T01:21:31;10.40;83.30
71668;DHT22;59504;54.806;9.640;2023-03-23T01:23:50;10.40;83.30
71668;DHT22;59504;54.806;9.640;2023-03-23T01:26:12;10.30;83.20
71668;DHT22;59504;54.806;9.640;2023-03-23T01:28:32;10.40;83.20
71668;DHT22;59504;54.806;9.640;2023-03-23T01:30:52;10.40;83.10
71668;DHT22;59504;54.806;9.640;2023-03-23T01:33:11;10.40;83.20
71668;DHT22;59504;54.806;9.640;2023-03-23T01:35:30;10.40;83.10
71668;DHT22;59504;54.806;9.640;2023-03-23T01:37:49;10.40;83.00
71668;DHT22;59504;54.806;9.640;2023-03-23T01:40:10;10.40;83.00
71668;DHT22;59504;54.806;9.640;2023-03-23T01:42:35;10.30;82.80
71668;DHT22;59504;54.806;9.640;2023-03-23T01:47:33;10.30;82.60
71668;DHT22;59504;54.806;9.640;2023-03-23T01:49:53;10.30;82.50
71668;DHT22;59504;54.806;9.640;2023-03-23T01:52:26;10.30;82.50
71668;DHT22;59504;54.806;9.640;2023-03-23T01:54:48;10.40;82.50
71668;DHT22;59504;54.806;9.640;2023-03-23T01:57:17;10.30;82.30
71668;DHT22;59504;54.806;9.640;2023-03-23T01:59:37;10.20;82.20
71668;DHT22;59504;54.806;9.640;2023-03-23T02:01:57;10.20;82.20
71668;DHT22;59504;54.806;9.640;2023-03-23T02:04:17;10.30;82.20
71668;DHT22;59504;54.806;9.640;2023-03-23T02:06:41;10.20;82.10
71668;DHT22;59504;54.806;9.640;2023-03-23T02:09:02;10.30;82.20
71668;DHT22;59504;54.806;9.640;2023-03-23T02:11:24;10.20;82.00
71668;DHT22;59504;54.806;9.640;2023-03-23T02:13:44;10.30;82.00
71668;DHT22;59504;54.806;9.640;2023-03-23T02:16:21;10.10;81.70
71668;DHT22;59504;54.806;9.640;2023-03-23T02:24:43;10.10;81.30
71668;DHT22;59504;54.806;9.640;2023-03-23T02:30:36;10.00;80.80
71668;DHT22;59504;54.806;9.640;2023-03-23T02:36:14;10.00;80.50
71668;DHT22;59504;54.806;9.640;2023-03-23T02:38:41;10.00;80.30
71668;DHT22;59504;54.806;9.640;2023-03-23T02:41:03;9.90;80.00
71668;DHT22;59504;54.806;9.640;2023-03-23T02:43:25;9.90;79.80
71668;DHT22;59504;54.806;9.640;2023-03-23T02:45:46;10.00;79.70
71668;DHT22;59504;54.806;9.640;2023-03-23T02:48:05;9.90;79.40
71668;DHT22;59504;54.806;9.640;2023-03-23T02:50:27;9.80;79.40
71668;DHT22;59504;54.806;9.640;2023-03-23T02:52:48;9.80;79.40
71668;DHT22;59504;54.806;9.640;2023-03-23T02:55:10;9.70;79.30
71668;DHT22;59504;54.806;9.640;2023-03-23T02:57:30;9.80;79.30
71668;DHT22;59504;54.806;9.640;2023-03-23T02:59:50;9.80;79.40
71668;DHT22;59504;54.806;9.640;2023-03-23T03:02:12;9.80;79.30
71668;DHT22;59504;54.806;9.640;2023-03-23T03:04:33;9.70;78.90
71668;DHT22;59504;54.806;9.640;2023-03-23T03:09:58;9.60;78.90
71668;DHT22;59504;54.806;9.640;2023-03-23T03:12:33;9.60;78.90
71668;DHT22;59504;54.806;9.640;2023-03-23T03:17:26;9.50;78.90
71668;DHT22;59504;54.806;9.640;2023-03-23T03:19:54;9.50;79.10
71668;DHT22;59504;54.806;9.640;2023-03-23T03:22:16;9.40;79.00
71668;DHT22;59504;54.806;9.640;2023-03-23T03:24:36;9.50;79.10
71668;DHT22;59504;54.806;9.640;2023-03-23T03:26:58;9.50;79.20
71668;DHT22;59504;54.806;9.640;2023-03-23T03:29:21;9.40;79.10
71668;DHT22;59504;54.806;9.640;2023-03-23T03:31:43;9.30;79.10
71668;DHT22;59504;54.806;9.640;2023-03-23T03:34:04;9.40;79.40
71668;DHT22;59504;54.806;9.640;2023-03-23T03:36:27;9.30;79.30
71668;DHT22;59504;54.806;9.640;2023-03-23T03:38:53;9.40;79.50
71668;DHT22;59504;54.806;9.640;2023-03-23T03:41:13;9.30;79.50
71668;DHT22;59504;54.806;9.640;2023-03-23T03:43:32;9.20;79.50
71668;DHT22;59504;54.806;9.640;2023-03-23T03:45:51;9.30;79.70
71668;DHT22;59504;54.806;9.640;2023-03-23T03:48:10;9.30;79.70
71668;DHT22;59504;54.806;9.640;2023-03-23T03:50:32;9.10;79.70
71668;DHT22;59504;54.806;9.640;2023-03-23T03:52:52;9.20;79.70
71668;DHT22;59504;54.806;9.640;2023-03-23T03:55:15;9.20;79.80
71668;DHT22;59504;54.806;9.640;2023-03-23T03:57:36;9.20;79.90
71668;DHT22;59504;54.806;9.640;2023-03-23T03:59:56;9.20;80.00
71668;DHT22;59504;54.806;9.640;2023-03-23T04:02:15;9.20;79.90
71668;DHT22;59504;54.806;9.640;2023-03-23T04:04:39;9.10;79.90
71668;DHT22;59504;54.806;9.640;2023-03-23T04:07:02;9.10;80.00
71668;DHT22;59504;54.806;9.640;2023-03-23T04:09:21;9.10;80.00
71668;DHT22;59504;54.806;9.640;2023-03-23T04:11:41;9.10;80.00
71668;DHT22;59504;54.806;9.640;2023-03-23T04:14:00;9.20;81.00
71668;DHT22;59504;54.806;9.640;2023-03-23T04:16:19;9.10;80.20
71668;DHT22;59504;54.806;9.640;2023-03-23T04:18:40;9.00;80.30
71668;DHT22;59504;54.806;9.640;2023-03-23T04:21:02;9.10;80.30
71668;DHT22;59504;54.806;9.640;2023-03-23T04:23:22;9.00;80.30
71668;DHT22;59504;54.806;9.640;2023-03-23T04:25:41;9.10;81.10
71668;DHT22;59504;54.806;9.640;2023-03-23T04:28:02;9.00;80.30
71668;DHT22;59504;54.806;9.640;2023-03-23T04:30:24;9.00;80.40
71668;DHT22;59504;54.806;9.640;2023-03-23T04:32:43;9.00;80.40
71668;DHT22;59504;54.806;9.640;2023-03-23T04:35:06;8.90;80.40
71668;DHT22;59504;54.806;9.640;2023-03-23T04:37:30;8.90;80.30
71668;DHT22;59504;54.806;9.640;2023-03-23T04:39:49;9.00;80.50
71668;DHT22;59504;54.806;9.640;2023-03-23T04:42:09;8.90;81.20
71668;DHT22;59504;54.806;9.640;2023-03-23T04:44:30;8.90;80.40
71668;DHT22;59504;54.806;9.640;2023-03-23T04:46:52;8.90;80.50
71668;DHT22;59504;54.806;9.640;2023-03-23T04:49:14;9.00;80.70
71668;DHT22;59504;54.806;9.640;2023-03-23T04:51:34;9.00;80.70
71668;DHT22;59504;54.806;9.640;2023-03-23T04:53:55;9.00;80.80
71668;DHT22;59504;54.806;9.640;2023-03-23T04:56:15;9.00;80.80
71668;DHT22;59504;54.806;9.640;2023-03-23T04:58:55;8.90;80.80
71668;DHT22;59504;54.806;9.640;2023-03-23T05:01:14;8.90;80.80
71668;DHT22;59504;54.806;9.640;2023-03-23T05:03:33;8.90;81.00
71668;DHT22;59504;54.806;9.640;2023-03-23T05:05:34;8.90;81.00
71668;DHT22;59504;54.806;9.640;2023-03-23T05:07:39;8.90;81.20
71668;DHT22;59504;54.806;9.640;2023-03-23T05:09:40;8.90;81.20
71668;DHT22;59504;54.806;9.640;2023-03-23T05:11:43;8.90;81.30
71668;DHT22;59504;54.806;9.640;2023-03-23T05:13:52;8.80;81.40
71668;DHT22;59504;54.806;9.640;2023-03-23T05:16:03;8.90;81.40
71668;DHT22;59504;54.806;9.640;2023-03-23T05:18:04;8.90;81.40
71668;DHT22;59504;54.806;9.640;2023-03-23T05:20:14;8.90;81.40
71668;DHT22;59504;54.806;9.640;2023-03-23T05:22:15;9.00;81.50
71668;DHT22;59504;54.806;9.640;2023-03-23T05:24:16;9.00;81.60
71668;DHT22;59504;54.806;9.640;2023-03-23T05:26:22;8.90;81.60
71668;DHT22;59504;54.806;9.640;2023-03-23T05:28:27;8.90;81.70
71668;DHT22;59504;54.806;9.640;2023-03-23T05:30:27;8.80;81.80
71668;DHT22;59504;54.806;9.640;2023-03-23T05:32:28;8.90;82.00
71668;DHT22;59504;54.806;9.640;2023-03-23T05:34:29;8.90;82.00
71668;DHT22;59504;54.806;9.640;2023-03-23T05:36:32;9.00;82.00
71668;DHT22;59504;54.806;9.640;2023-03-23T05:38:33;8.90;81.90
71668;DHT22;59504;54.806;9.640;2023-03-23T05:40:34;8.90;82.10
71668;DHT22;59504;54.806;9.640;2023-03-23T05:42:41;9.00;82.20
71668;DHT22;59504;54.806;9.640;2023-03-23T05:44:45;9.00;82.20
71668;DHT22;59504;54.806;9.640;2023-03-23T05:46:47;8.90;82.10
71668;DHT22;59504;54.806;9.640;2023-03-23T05:48:55;8.90;82.20
71668;DHT22;59504;54.806;9.640;2023-03-23T05:50:56;9.00;82.30
71668;DHT22;59504;54.806;9.640;2023-03-23T05:52:57;9.00;82.30
71668;DHT22;59504;54.806;9.640;2023-03-23T05:55:00;9.00;82.40
71668;DHT22;59504;54.806;9.640;2023-03-23T05:57:09;9.00;82.30
71668;DHT22;59504;54.806;9.640;2023-03-23T05:59:16;9.10;82.40
71668;DHT22;59504;54.806;9.640;2023-03-23T06:01:19;9.10;82.30
71668;DHT22;59504;54.806;9.640;2023-03-23T06:03:24;9.00;82.30
71668;DHT22;59504;54.806;9.640;2023-03-23T06:05:25;9.10;82.30
71668;DHT22;59504;54.806;9.640;2023-03-23T06:07:26;9.00;82.30
71668;DHT22;59504;54.806;9.640;2023-03-23T06:09:29;9.00;82.50
71668;DHT22;59504;54.806;9.640;2023-03-23T06:11:30;9.10;82.50
71668;DHT22;59504;54.806;9.640;2023-03-23T06:13:34;9.00;82.50
71668;DHT22;59504;54.806;9.640;2023-03-23T06:15:35;9.10;82.50
71668;DHT22;59504;54.806;9.640;2023-03-23T06:17:43;9.20;82.60
71668;DHT22;59504;54.806;9.640;2023-03-23T06:19:44;9.10;82.50
71668;DHT22;59504;54.806;9.640;2023-03-23T06:21:54;9.00;82.40
71668;DHT22;59504;54.806;9.640;2023-03-23T06:23:58;9.10;82.50
71668;DHT22;59504;54.806;9.640;2023-03-23T06:26:03;9.20;82.60
71668;DHT22;59504;54.806;9.640;2023-03-23T06:28:05;9.10;82.60
71668;DHT22;59504;54.806;9.640;2023-03-23T06:30:12;9.20;83.40
71668;DHT22;59504;54.806;9.640;2023-03-23T06:32:15;9.10;82.70
71668;DHT22;59504;54.806;9.640;2023-03-23T06:34:16;9.10;82.80
71668;DHT22;59504;54.806;9.640;2023-03-23T06:36:17;9.20;82.90
71668;DHT22;59504;54.806;9.640;2023-03-23T06:38:18;9.20;82.80
71668;DHT22;59504;54.806;9.640;2023-03-23T06:40:19;9.20;82.70
71668;DHT22;59504;54.806;9.640;2023-03-23T06:42:27;9.20;82.60
71668;DHT22;59504;54.806;9.640;2023-03-23T06:44:28;9.30;82.60
71668;DHT22;59504;54.806;9.640;2023-03-23T06:46:29;9.20;82.50
71668;DHT22;59504;54.806;9.640;2023-03-23T06:48:32;9.30;82.50
71668;DHT22;59504;54.806;9.640;2023-03-23T06:50:33;9.30;82.70
71668;DHT22;59504;54.806;9.640;2023-03-23T06:52:45;9.40;82.40
71668;DHT22;59504;54.806;9.640;2023-03-23T06:54:47;9.30;82.30
71668;DHT22;59504;54.806;9.640;2023-03-23T06:56:48;9.30;82.70
71668;DHT22;59504;54.806;9.640;2023-03-23T06:58:49;9.40;82.90
71668;DHT22;59504;54.806;9.640;2023-03-23T07:00:56;9.30;82.90
71668;DHT22;59504;54.806;9.640;2023-03-23T07:03:08;9.40;83.10
71668;DHT22;59504;54.806;9.640;2023-03-23T07:05:10;9.30;83.10
71668;DHT22;59504;54.806;9.640;2023-03-23T07:07:13;9.40;83.30
71668;DHT22;59504;54.806;9.640;2023-03-23T07:09:15;9.40;83.40
71668;DHT22;59504;54.806;9.640;2023-03-23T07:11:25;9.40;83.50
71668;DHT22;59504;54.806;9.640;2023-03-23T07:13:29;9.40;83.60
71668;DHT22;59504;54.806;9.640;2023-03-23T07:15:40;9.50;83.70
71668;DHT22;59504;54.806;9.640;2023-03-23T07:17:41;9.40;83.70
71668;DHT22;59504;54.806;9.640;2023-03-23T07:19:42;9.60;83.90
71668;DHT22;59504;54.806;9.640;2023-03-23T07:21:42;9.60;84.00
71668;DHT22;59504;54.806;9.640;2023-03-23T07:23:51;9.60;84.10
71668;DHT22;59504;54.806;9.640;2023-03-23T07:25:55;9.70;84.10
71668;DHT22;59504;54.806;9.640;2023-03-23T07:28:03;9.70;84.10
71668;DHT22;59504;54.806;9.640;2023-03-23T07:30:05;9.70;84.10
71668;DHT22;59504;54.806;9.640;2023-03-23T07:32:12;9.80;84.10
71668;DHT22;59504;54.806;9.640;2023-03-23T07:34:13;9.70;84.00
71668;DHT22;59504;54.806;9.640;2023-03-23T07:36:14;9.90;84.10
71668;DHT22;59504;54.806;9.640;2023-03-23T07:38:18;9.80;83.70
71668;DHT22;59504;54.806;9.640;2023-03-23T07:40:19;10.00;83.80
71668;DHT22;59504;54.806;9.640;2023-03-23T07:42:21;9.90;83.50
71668;DHT22;59504;54.806;9.640;2023-03-23T07:44:45;9.90;83.30
71668;DHT22;59504;54.806;9.640;2023-03-23T07:46:46;9.90;83.20
71668;DHT22;59504;54.806;9.640;2023-03-23T07:49:07;10.00;83.10
71668;DHT22;59504;54.806;9.640;2023-03-23T07:51:32;10.00;82.60
71668;DHT22;59504;54.806;9.640;2023-03-23T07:53:53;10.10;82.60
71668;DHT22;59504;54.806;9.640;2023-03-23T07:56:15;10.10;82.40
71668;DHT22;59504;54.806;9.640;2023-03-23T07:58:39;10.10;82.20
71668;DHT22;59504;54.806;9.640;2023-03-23T08:01:02;10.00;82.30
71668;DHT22;59504;54.806;9.640;2023-03-23T08:03:24;10.00;81.50
71668;DHT22;59504;54.806;9.640;2023-03-23T08:05:45;10.10;81.10
71668;DHT22;59504;54.806;9.640;2023-03-23T08:08:08;10.00;80.30
71668;DHT22;59504;54.806;9.640;2023-03-23T08:10:32;10.00;80.60
71668;DHT22;59504;54.806;9.640;2023-03-23T08:12:57;10.10;80.70
71668;DHT22;59504;54.806;9.640;2023-03-23T08:15:20;10.00;80.60
71668;DHT22;59504;54.806;9.640;2023-03-23T08:17:42;10.10;80.80
71668;DHT22;59504;54.806;9.640;2023-03-23T08:20:04;10.20;80.90
71668;DHT22;59504;54.806;9.640;2023-03-23T08:22:14;10.10;80.50
71668;DHT22;59504;54.806;9.640;2023-03-23T08:24:37;10.20;80.50
71668;DHT22;59504;54.806;9.640;2023-03-23T08:26:59;10.20;80.20
71668;DHT22;59504;54.806;9.640;2023-03-23T08:29:20;10.20;80.00
71668;DHT22;59504;54.806;9.640;2023-03-23T08:31:41;10.20;79.70
71668;DHT22;59504;54.806;9.640;2023-03-23T08:34:03;10.30;79.40
71668;DHT22;59504;54.806;9.640;2023-03-23T08:36:25;10.30;79.40
71668;DHT22;59504;54.806;9.640;2023-03-23T08:38:45;10.30;79.20
71668;DHT22;59504;54.806;9.640;2023-03-23T08:41:06;10.40;78.90
71668;DHT22;59504;54.806;9.640;2023-03-23T08:43:28;10.40;79.00
71668;DHT22;59504;54.806;9.640;2023-03-23T08:45:52;10.50;78.90
71668;DHT22;59504;54.806;9.640;2023-03-23T08:48:12;10.60;78.90
71668;DHT22;59504;54.806;9.640;2023-03-23T08:50:33;10.50;78.60
71668;DHT22;59504;54.806;9.640;2023-03-23T08:52:54;10.50;78.50
71668;DHT22;59504;54.806;9.640;2023-03-23T08:55:16;10.60;78.40
71668;DHT22;59504;54.806;9.640;2023-03-23T08:57:47;10.70;78.10
71668;DHT22;59504;54.806;9.640;2023-03-23T09:00:10;10.70;77.80
71668;DHT22;59504;54.806;9.640;2023-03-23T09:02:38;10.70;76.80
71668;DHT22;59504;54.806;9.640;2023-03-23T09:04:59;10.80;76.60
71668;DHT22;59504;54.806;9.640;2023-03-23T09:07:23;10.90;76.30
71668;DHT22;59504;54.806;9.640;2023-03-23T09:09:50;10.90;76.00
71668;DHT22;59504;54.806;9.640;2023-03-23T09:12:13;11.00;75.60
71668;DHT22;59504;54.806;9.640;2023-03-23T09:14:35;10.90;75.40
71668;DHT22;59504;54.806;9.640;2023-03-23T09:16:57;10.90;74.80
71668;DHT22;59504;54.806;9.640;2023-03-23T09:19:18;10.90;74.80
71668;DHT22;59504;54.806;9.640;2023-03-23T09:21:44;10.90;74.60
71668;DHT22;59504;54.806;9.640;2023-03-23T09:24:05;10.90;74.20
71668;DHT22;59504;54.806;9.640;2023-03-23T09:26:27;10.90;74.10
71668;DHT22;59504;54.806;9.640;2023-03-23T09:28:48;10.90;74.00
71668;DHT22;59504;54.806;9.640;2023-03-23T09:31:08;10.80;74.10
71668;DHT22;59504;54.806;9.640;2023-03-23T09:33:32;10.80;73.70
71668;DHT22;59504;54.806;9.640;2023-03-23T09:35:59;10.80;73.40
71668;DHT22;59504;54.806;9.640;2023-03-23T09:38:23;10.90;73.50
71668;DHT22;59504;54.806;9.640;2023-03-23T09:41:38;10.70;73.60
71668;DHT22;59504;54.806;9.640;2023-03-23T09:48:57;10.70;73.70
71668;DHT22;59504;54.806;9.640;2023-03-23T09:51:51;10.70;73.30
71668;DHT22;59504;54.806;9.640;2023-03-23T09:56:40;10.70;73.80
71668;DHT22;59504;54.806;9.640;2023-03-23T09:59:14;10.70;74.00
71668;DHT22;59504;54.806;9.640;2023-03-23T10:01:40;10.70;73.60
71668;DHT22;59504;54.806;9.640;2023-03-23T10:07:12;10.70;73.30
71668;DHT22;59504;54.806;9.640;2023-03-23T10:09:40;10.90;73.50
71668;DHT22;59504;54.806;9.640;2023-03-23T10:12:41;10.80;73.40
71668;DHT22;59504;54.806;9.640;2023-03-23T10:15:04;10.80;73.50
71668;DHT22;59504;54.806;9.640;2023-03-23T10:17:49;10.80;73.50
71668;DHT22;59504;54.806;9.640;2023-03-23T10:22:33;10.90;72.90
71668;DHT22;59504;54.806;9.640;2023-03-23T10:25:30;10.90;72.60
71668;DHT22;59504;54.806;9.640;2023-03-23T10:28:03;10.90;72.60
71668;DHT22;59504;54.806;9.640;2023-03-23T10:30:29;10.90;72.50
71668;DHT22;59504;54.806;9.640;2023-03-23T10:33:23;10.90;72.10
71668;DHT22;59504;54.806;9.640;2023-03-23T10:35:57;10.90;71.60
71668;DHT22;59504;54.806;9.640;2023-03-23T10:38:27;11.00;71.00
71668;DHT22;59504;54.806;9.640;2023-03-23T10:41:00;10.90;71.00
71668;DHT22;59504;54.806;9.640;2023-03-23T10:43:21;11.00;71.10
71668;DHT22;59504;54.806;9.640;2023-03-23T10:45:42;11.00;70.80
71668;DHT22;59504;54.806;9.640;2023-03-23T10:48:30;11.10;71.00
71668;DHT22;59504;54.806;9.640;2023-03-23T10:50:55;11.10;70.60
71668;DHT22;59504;54.806;9.640;2023-03-23T10:53:37;11.10;70.80
71668;DHT22;59504;54.806;9.640;2023-03-23T10:56:04;11.10;70.40
71668;DHT22;59504;54.806;9.640;2023-03-23T10:58:29;11.00;70.30
71668;DHT22;59504;54.806;9.640;2023-03-23T11:00:54;11.10;70.40
71668;DHT22;59504;54.806;9.640;2023-03-23T11:05:37;11.20;70.40
71668;DHT22;59504;54.806;9.640;2023-03-23T11:07:57;11.30;70.10
71668;DHT22;59504;54.806;9.640;2023-03-23T11:10:35;11.20;69.70
71668;DHT22;59504;54.806;9.640;2023-03-23T11:12:58;11.40;69.40
71668;DHT22;59504;54.806;9.640;2023-03-23T11:15:27;11.50;69.70
71668;DHT22;59504;54.806;9.640;2023-03-23T11:17:55;11.40;68.80
71668;DHT22;59504;54.806;9.640;2023-03-23T11:20:19;11.50;68.20
71668;DHT22;59504;54.806;9.640;2023-03-23T11:22:39;11.50;67.10
71668;DHT22;59504;54.806;9.640;2023-03-23T11:24:44;11.70;66.00
71668;DHT22;59504;54.806;9.640;2023-03-23T11:26:45;11.60;65.60
71668;DHT22;59504;54.806;9.640;2023-03-23T11:29:08;11.50;65.80
71668;DHT22;59504;54.806;9.640;2023-03-23T11:31:11;11.50;66.30
71668;DHT22;59504;54.806;9.640;2023-03-23T11:33:14;11.60;66.80
71668;DHT22;59504;54.806;9.640;2023-03-23T11:35:25;11.70;67.30
71668;DHT22;59504;54.806;9.640;2023-03-23T11:37:34;11.70;67.90
71668;DHT22;59504;54.806;9.640;2023-03-23T11:39:54;11.80;67.60
71668;DHT22;59504;54.806;9.640;2023-03-23T11:41:59;11.80;67.10
71668;DHT22;59504;54.806;9.640;2023-03-23T11:44:11;11.80;66.50
71668;DHT22;59504;54.806;9.640;2023-03-23T11:46:32;11.90;65.80
71668;DHT22;59504;54.806;9.640;2023-03-23T11:48:43;11.90;65.30
71668;DHT22;59504;54.806;9.640;2023-03-23T11:55:14;12.10;65.30
71668;DHT22;59504;54.806;9.640;2023-03-23T11:57:16;12.00;64.00
71668;DHT22;59504;54.806;9.640;2023-03-23T11:59:31;11.90;62.60
71668;DHT22;59504;54.806;9.640;2023-03-23T12:01:43;11.80;62.10
71668;DHT22;59504;54.806;9.640;2023-03-23T12:06:10;11.70;61.20
71668;DHT22;59504;54.806;9.640;2023-03-23T12:13:10;11.50;60.60
71668;DHT22;59504;54.806;9.640;2023-03-23T12:17:51;11.40;61.20
71668;DHT22;59504;54.806;9.640;2023-03-23T12:20:06;11.30;61.60
71668;DHT22;59504;54.806;9.640;2023-03-23T12:27:48;11.20;60.90
71668;DHT22;59504;54.806;9.640;2023-03-23T12:30:28;11.20;61.00
71668;DHT22;59504;54.806;9.640;2023-03-23T12:43:39;11.10;61.10
71668;DHT22;59504;54.806;9.640;2023-03-23T12:48:48;11.10;61.90
71668;DHT22;59504;54.806;9.640;2023-03-23T12:51:21;11.20;62.30
71668;DHT22;59504;54.806;9.640;2023-03-23T12:59:13;11.40;62.40
71668;DHT22;59504;54.806;9.640;2023-03-23T13:01:24;11.50;61.60
71668;DHT22;59504;54.806;9.640;2023-03-23T13:05:33;11.60;61.30
71668;DHT22;59504;54.806;9.640;2023-03-23T13:07:54;11.70;61.60
71668;DHT22;59504;54.806;9.640;2023-03-23T13:10:17;11.70;61.80
71668;DHT22;59504;54.806;9.640;2023-03-23T13:12:23;11.70;62.00
71668;DHT22;59504;54.806;9.640;2023-03-23T13:17:35;11.70;62.00
71668;DHT22;59504;54.806;9.640;2023-03-23T13:22:18;11.80;61.40
71668;DHT22;59504;54.806;9.640;2023-03-23T13:24:57;11.80;61.20
71668;DHT22;59504;54.806;9.640;2023-03-23T13:27:26;11.80;60.50
71668;DHT22;59504;54.806;9.640;2023-03-23T13:29:48;11.80;60.30
71668;DHT22;59504;54.806;9.640;2023-03-23T13:32:16;11.90;60.60
71668;DHT22;59504;54.806;9.640;2023-03-23T13:34:39;11.90;60.60
71668;DHT22;59504;54.806;9.640;2023-03-23T13:37:06;11.90;60.90
71668;DHT22;59504;54.806;9.640;2023-03-23T13:39:52;11.90;60.90
71668;DHT22;59504;54.806;9.640;2023-03-23T13:52:36;12.00;60.00
71668;DHT22;59504;54.806;9.640;2023-03-23T13:57:48;12.00;58.50
71668;DHT22;59504;54.806;9.640;2023-03-23T13:59:56;12.00;58.90
71668;DHT22;59504;54.806;9.640;2023-03-23T14:02:28;12.00;58.90
71668;DHT22;59504;54.806;9.640;2023-03-23T14:04:32;11.90;58.50
71668;DHT22;59504;54.806;9.640;2023-03-23T14:06:33;11.90;58.70
71668;DHT22;59504;54.806;9.640;2023-03-23T14:10:41;11.90;58.90
71668;DHT22;59504;54.806;9.640;2023-03-23T14:12:45;11.90;59.20
71668;DHT22;59504;54.806;9.640;2023-03-23T14:14:54;11.80;59.40
71668;DHT22;59504;54.806;9.640;2023-03-23T14:17:06;11.90;59.80
71668;DHT22;59504;54.806;9.640;2023-03-23T14:19:23;11.80;59.90
71668;DHT22;59504;54.806;9.640;2023-03-23T14:21:37;11.80;59.70
71668;DHT22;59504;54.806;9.640;2023-03-23T14:23:40;11.80;59.30
71668;DHT22;59504;54.806;9.640;2023-03-23T14:25:41;11.90;58.80
71668;DHT22;59504;54.806;9.640;2023-03-23T14:27:43;11.80;58.30
71668;DHT22;59504;54.806;9.640;2023-03-23T14:30:23;11.80;57.30
71668;DHT22;59504;54.806;9.640;2023-03-23T14:32:29;11.70;56.60
71668;DHT22;59504;54.806;9.640;2023-03-23T14:34:32;11.70;56.60
71668;DHT22;59504;54.806;9.640;2023-03-23T14:36:35;11.70;57.00
71668;DHT22;59504;54.806;9.640;2023-03-23T14:38:37;11.60;56.90
71668;DHT22;59504;54.806;9.640;2023-03-23T14:40:42;11.60;56.40
71668;DHT22;59504;54.806;9.640;2023-03-23T14:43:02;11.60;56.90
71668;DHT22;59504;54.806;9.640;2023-03-23T14:45:06;11.60;57.00
71668;DHT22;59504;54.806;9.640;2023-03-23T14:47:34;11.60;57.40
71668;DHT22;59504;54.806;9.640;2023-03-23T14:49:58;11.60;57.70
71668;DHT22;59504;54.806;9.640;2023-03-23T14:52:10;11.70;57.80
71668;DHT22;59504;54.806;9.640;2023-03-23T14:54:31;11.60;57.60
71668;DHT22;59504;54.806;9.640;2023-03-23T14:56:53;11.60;57.00
71668;DHT22;59504;54.806;9.640;2023-03-23T14:59:14;11.60;57.00
71668;DHT22;59504;54.806;9.640;2023-03-23T15:01:39;11.70;57.30
71668;DHT22;59504;54.806;9.640;2023-03-23T15:04:06;11.60;55.70
71668;DHT22;59504;54.806;9.640;2023-03-23T15:06:31;11.60;55.30
71668;DHT22;59504;54.806;9.640;2023-03-23T15:08:54;11.70;55.50
71668;DHT22;59504;54.806;9.640;2023-03-23T15:13:45;11.60;56.00
71668;DHT22;59504;54.806;9.640;2023-03-23T15:16:19;11.60;56.10
71668;DHT22;59504;54.806;9.640;2023-03-23T15:18:31;11.70;56.60
71668;DHT22;59504;54.806;9.640;2023-03-23T15:20:52;11.70;56.70
71668;DHT22;59504;54.806;9.640;2023-03-23T15:22:53;11.70;56.90
71668;DHT22;59504;54.806;9.640;2023-03-23T15:25:19;11.80;57.20
71668;DHT22;59504;54.806;9.640;2023-03-23T15:27:39;11.70;57.50
71668;DHT22;59504;54.806;9.640;2023-03-23T15:29:52;11.80;58.00
71668;DHT22;59504;54.806;9.640;2023-03-23T15:31:54;11.70;58.00
71668;DHT22;59504;54.806;9.640;2023-03-23T15:34:00;11.70;58.30
71668;DHT22;59504;54.806;9.640;2023-03-23T15:36:16;11.70;58.40
71668;DHT22;59504;54.806;9.640;2023-03-23T15:38:23;11.70;58.40
71668;DHT22;59504;54.806;9.640;2023-03-23T15:40:37;11.70;58.50
71668;DHT22;59504;54.806;9.640;2023-03-23T15:45:26;11.60;59.00
71668;DHT22;59504;54.806;9.640;2023-03-23T15:47:48;11.60;59.10
71668;DHT22;59504;54.806;9.640;2023-03-23T15:50:03;11.70;59.40
71668;DHT22;59504;54.806;9.640;2023-03-23T15:52:11;11.60;59.60
71668;DHT22;59504;54.806;9.640;2023-03-23T15:54:32;11.60;59.50
71668;DHT22;59504;54.806;9.640;2023-03-23T15:56:33;11.50;59.60
71668;DHT22;59504;54.806;9.640;2023-03-23T15:58:54;11.60;59.80
71668;DHT22;59504;54.806;9.640;2023-03-23T16:01:26;11.50;60.00
71668;DHT22;59504;54.806;9.640;2023-03-23T16:03:54;11.50;60.30
71668;DHT22;59504;54.806;9.640;2023-03-23T16:06:18;11.50;60.70
71668;DHT22;59504;54.806;9.640;2023-03-23T16:08:39;11.50;60.70
71668;DHT22;59504;54.806;9.640;2023-03-23T16:11:02;11.50;60.70
71668;DHT22;59504;54.806;9.640;2023-03-23T16:13:23;11.40;60.10
71668;DHT22;59504;54.806;9.640;2023-03-23T16:15:45;11.40;59.80
71668;DHT22;59504;54.806;9.640;2023-03-23T16:18:08;11.40;59.30